createdAt,value
2019-02-14T00:02:04.058Z,42.33
2019-02-14T00:07:08.089Z,42.57
2019-02-14T00:12:12.110Z,42.93
2019-02-14T00:17:16.408Z,43.87
2019-02-14T00:22:20.429Z,40.53
2019-02-14T00:27:30.447Z,41.20
2019-02-14T00:32:34.491Z,41.20
2019-02-14T00:37:38.519Z,41.33
2019-02-14T00:42:42.541Z,39.57
2019-02-14T00:47:46.560Z,39.20
2019-02-14T00:52:50.596Z,39.13
2019-02-14T00:57:54.629Z,40.87
2019-02-14T01:02:58.664Z,37.60
2019-02-14T01:08:02.687Z,39.90
2019-02-14T01:13:06.707Z,38.60
2019-02-14T01:18:10.727Z,39.50
2019-02-14T01:23:14.754Z,36.53
2019-02-14T01:28:18.758Z,35.97
2019-02-14T01:33:22.775Z,38.47
2019-02-14T01:38:26.806Z,38.37
2019-02-14T01:43:30.861Z,36.43
2019-02-14T01:48:34.860Z,35.33
2019-02-14T01:53:38.884Z,36.17
2019-02-14T01:58:42.891Z,33.90
2019-02-14T02:03:46.885Z,34.30
2019-02-14T02:08:50.894Z,34.07
2019-02-14T02:13:54.915Z,34.17
2019-02-14T02:18:58.926Z,32.93
2019-02-14T02:24:02.929Z,33.40
2019-02-14T02:29:06.936Z,31.03
2019-02-14T02:34:10.954Z,31.87
2019-02-14T02:39:14.978Z,28.53
2019-02-14T02:44:27.536Z,29.07
2019-02-14T02:49:42.667Z,28.90
2019-02-14T02:54:46.805Z,27.97
2019-02-14T02:59:50.816Z,26.83
2019-02-14T03:04:55.017Z,27.70
2019-02-14T03:09:59.104Z,30.37
2019-02-14T03:15:03.421Z,26.37
2019-02-14T03:20:09.064Z,27.03
2019-02-14T03:25:15.344Z,24.43
2019-02-14T03:30:19.364Z,25.20
2019-02-14T03:35:23.363Z,24.20
2019-02-14T03:40:27.389Z,23.60
2019-02-14T03:45:31.430Z,24.60
2019-02-14T03:50:35.818Z,24.37
2019-02-14T03:55:39.870Z,21.90
2019-02-14T04:00:43.859Z,22.43
2019-02-14T04:05:47.861Z,22.87
2019-02-14T04:10:51.874Z,22.07
2019-02-14T04:15:55.932Z,22.40
2019-02-14T04:20:59.940Z,21.37
2019-02-14T04:26:03.951Z,22.73
2019-02-14T04:31:08.001Z,21.40
2019-02-14T04:36:12.025Z,21.60
2019-02-14T04:41:16.040Z,22.00
2019-02-14T04:46:20.047Z,20.90
2019-02-14T04:51:24.064Z,22.43
2019-02-14T04:56:28.231Z,22.00
2019-02-14T05:01:32.338Z,23.30
2019-02-14T05:06:44.059Z,20.37
2019-02-14T05:11:42.094Z,22.73
2019-02-14T05:16:46.125Z,20.93
2019-02-14T05:21:50.137Z,22.63
2019-02-14T05:26:54.162Z,24.40
2019-02-14T05:31:58.192Z,25.80
2019-02-14T05:37:02.239Z,24.50
2019-02-14T05:42:06.248Z,24.83
2019-02-14T05:47:10.268Z,22.57
2019-02-14T05:52:14.286Z,21.90
2019-02-14T05:57:28.605Z,21.70
2019-02-14T06:02:32.602Z,21.03
2019-02-14T06:07:36.634Z,21.60
2019-02-14T06:12:40.668Z,20.07
2019-02-14T06:17:44.701Z,20.77
2019-02-14T06:22:48.709Z,21.57
2019-02-14T06:27:52.731Z,20.73
2019-02-14T06:32:56.763Z,20.77
2019-02-14T06:38:00.842Z,21.57
2019-02-14T06:43:04.867Z,20.87
2019-02-14T06:48:08.947Z,21.63
2019-02-14T06:53:12.961Z,22.20
2019-02-14T06:58:16.979Z,21.10
2019-02-14T07:03:21.093Z,21.47
2019-02-14T07:08:25.106Z,23.37
2019-02-14T07:13:29.197Z,20.50
2019-02-14T07:18:33.255Z,23.87
2019-02-14T07:23:38.076Z,24.83
2019-02-14T07:28:42.129Z,25.43
2019-02-14T07:33:46.253Z,24.90
2019-02-14T07:38:50.372Z,25.17
2019-02-14T07:43:54.432Z,22.50
2019-02-14T07:48:58.709Z,24.07
2019-02-14T07:54:02.824Z,23.70
2019-02-14T07:59:06.864Z,22.33
2019-02-14T08:04:10.915Z,24.10
2019-02-14T08:09:14.986Z,23.20
2019-02-14T08:14:19.111Z,23.57
2019-02-14T08:19:23.147Z,24.43
2019-02-14T08:24:27.179Z,25.57
2019-02-14T08:29:31.262Z,24.53
2019-02-14T08:34:35.312Z,23.77
2019-02-14T08:39:39.351Z,24.63
2019-02-14T08:44:43.359Z,21.93
2019-02-14T08:49:47.500Z,21.33
2019-02-14T08:54:51.514Z,20.80
2019-02-14T08:59:55.523Z,21.27
2019-02-14T09:04:59.539Z,21.47
2019-02-14T09:10:03.579Z,20.97
2019-02-14T09:15:08.413Z,22.07
2019-02-14T09:20:13.267Z,19.63
2019-02-14T09:25:17.282Z,19.90
2019-02-14T09:30:21.303Z,19.53
2019-02-14T09:35:27.143Z,20.80
2019-02-14T09:40:31.070Z,20.63
2019-02-14T09:45:35.085Z,19.37
2019-02-14T09:50:40.183Z,20.30
2019-02-14T09:55:44.236Z,19.33
2019-02-14T10:00:48.247Z,17.00
2019-02-14T10:05:52.272Z,18.47
2019-02-14T10:10:56.315Z,17.43
2019-02-14T10:16:00.328Z,17.90
2019-02-14T10:21:04.362Z,18.67
2019-02-14T10:26:08.393Z,19.83
2019-02-14T10:31:12.416Z,18.30
2019-02-14T10:36:16.467Z,19.43
2019-02-14T10:41:20.506Z,18.37
2019-02-14T10:46:24.482Z,18.53
2019-02-14T10:51:28.494Z,20.57
2019-02-14T10:56:32.512Z,18.90
2019-02-14T11:01:36.524Z,16.70
2019-02-14T11:06:40.554Z,16.47
2019-02-14T11:11:44.661Z,15.23
2019-02-14T11:16:48.649Z,16.03
2019-02-14T11:21:52.662Z,15.57
2019-02-14T11:26:56.707Z,14.53
2019-02-14T11:32:00.821Z,14.77
2019-02-14T11:37:04.832Z,14.97
2019-02-14T11:42:08.879Z,15.18
2019-02-14T11:47:12.895Z,15.15
2019-02-14T11:52:16.918Z,14.85
2019-02-14T11:57:20.942Z,15.63
2019-02-14T12:02:24.963Z,16.75
2019-02-14T12:07:28.990Z,15.58
2019-02-14T12:12:33.044Z,17.92
2019-02-14T12:17:37.060Z,24.10
2019-02-14T12:22:46.833Z,16.02
2019-02-14T12:27:46.810Z,16.32
2019-02-14T12:32:50.842Z,15.98
2019-02-14T12:37:54.975Z,16.15
2019-02-14T12:42:58.997Z,17.37
2019-02-14T12:48:03.028Z,15.58
2019-02-14T12:53:07.060Z,15.55
2019-02-14T12:58:11.098Z,15.35
2019-02-14T13:03:15.468Z,16.15
2019-02-14T13:08:19.533Z,16.40
2019-02-14T13:13:23.596Z,16.42
2019-02-14T13:18:27.645Z,15.90
2019-02-14T13:23:31.664Z,15.53
2019-02-14T13:28:35.681Z,16.30
2019-02-14T13:33:39.706Z,16.27
2019-02-14T13:38:43.783Z,15.65
2019-02-14T13:43:47.816Z,15.83
2019-02-14T13:48:51.844Z,15.20
2019-02-14T13:53:55.871Z,15.90
2019-02-14T13:58:59.980Z,17.23
2019-02-14T14:04:04.014Z,16.67
2019-02-14T14:09:10.024Z,15.43
2019-02-14T14:14:14.067Z,16.70
2019-02-14T14:19:18.105Z,15.63
2019-02-14T14:24:23.015Z,15.72
2019-02-14T14:29:27.507Z,17.13
2019-02-14T14:34:31.744Z,16.35
2019-02-14T14:39:35.760Z,14.80
2019-02-14T14:44:43.438Z,14.97
2019-02-14T14:49:47.452Z,15.17
2019-02-14T14:54:51.511Z,14.50
2019-02-14T14:59:55.899Z,14.25
2019-02-14T15:05:00.435Z,14.90
2019-02-14T15:10:04.797Z,15.17
2019-02-14T15:15:09.008Z,15.73
2019-02-14T15:20:13.556Z,14.93
2019-02-14T15:25:17.598Z,14.60
2019-02-14T15:30:21.662Z,15.18
2019-02-14T15:35:25.720Z,14.53
2019-02-14T15:40:29.750Z,15.10
2019-02-14T15:45:33.787Z,14.40
2019-02-14T15:50:37.847Z,14.43
2019-02-14T15:55:43.805Z,14.63
2019-02-14T16:00:50.009Z,15.27
2019-02-14T16:05:53.690Z,16.23
2019-02-14T16:10:57.943Z,15.93
2019-02-14T16:16:01.956Z,15.47
2019-02-14T16:21:07.822Z,16.10
2019-02-14T16:26:13.079Z,15.80
2019-02-14T16:31:17.503Z,17.13
2019-02-14T16:36:22.839Z,16.13
2019-02-14T16:41:27.042Z,15.90
2019-02-14T16:46:31.075Z,16.53
2019-02-14T16:51:35.139Z,15.90
2019-02-14T16:56:39.144Z,17.67
2019-02-14T17:01:43.165Z,17.47
2019-02-14T17:06:47.204Z,18.50
2019-02-14T17:11:51.264Z,18.90
2019-02-14T17:16:55.303Z,18.83
2019-02-14T17:21:59.334Z,17.67
2019-02-14T17:27:03.524Z,19.10
2019-02-14T17:32:07.552Z,18.80
2019-02-14T17:37:11.697Z,20.70
2019-02-14T17:42:15.712Z,20.87
2019-02-14T17:47:19.737Z,19.07
2019-02-14T17:52:23.775Z,19.60
2019-02-14T17:57:27.773Z,23.13
2019-02-14T18:02:31.800Z,20.17
2019-02-14T18:07:35.853Z,20.80
2019-02-14T18:12:39.899Z,24.67
2019-02-14T18:17:43.949Z,21.27
2019-02-14T18:22:47.958Z,20.43
2019-02-14T18:27:52.071Z,21.20
2019-02-14T18:32:56.104Z,19.80
2019-02-14T18:38:00.147Z,18.73
2019-02-14T18:43:04.211Z,19.20
2019-02-14T18:48:08.229Z,19.47
2019-02-14T18:53:12.330Z,61.53
2019-02-14T18:58:25.827Z,25.40
2019-02-14T19:03:22.473Z,29.93
2019-02-14T19:08:26.518Z,22.53
2019-02-14T19:13:30.562Z,21.33
2019-02-14T19:18:34.612Z,20.47
2019-02-14T19:23:38.653Z,22.50
2019-02-14T19:28:42.718Z,20.53
2019-02-14T19:33:46.779Z,20.40
2019-02-14T19:38:50.854Z,20.90
2019-02-14T19:43:54.933Z,19.37
2019-02-14T19:48:59.053Z,21.50
2019-02-14T19:54:03.214Z,20.33
2019-02-14T19:59:07.392Z,17.97
2019-02-14T20:04:11.490Z,18.60
2019-02-14T20:09:15.740Z,88.63
2019-02-14T20:14:20.617Z,18.63
2019-02-14T20:19:24.714Z,19.53
2019-02-14T20:24:28.951Z,15.70
2019-02-14T20:29:33.046Z,18.20
2019-02-14T20:34:37.163Z,15.57
2019-02-14T20:39:41.725Z,14.23
2019-02-14T20:44:45.781Z,15.60
2019-02-14T20:49:49.882Z,12.90
2019-02-14T20:54:53.998Z,13.47
2019-02-14T20:59:58.081Z,12.63
2019-02-14T21:05:02.143Z,13.43
2019-02-14T21:10:06.208Z,15.47
2019-02-14T21:15:10.271Z,20.67
2019-02-14T21:20:14.364Z,18.63
2019-02-14T21:25:32.693Z,13.13
2019-02-14T21:30:36.707Z,11.47
2019-02-14T21:35:40.750Z,14.97
2019-02-14T21:40:44.789Z,13.63
2019-02-14T21:45:48.818Z,12.80
2019-02-14T21:50:53.853Z,11.37
2019-02-14T21:55:57.866Z,11.00
2019-02-14T22:01:01.948Z,10.87
2019-02-14T22:06:05.968Z,12.27
2019-02-14T22:11:10.032Z,10.00
2019-02-14T22:16:14.051Z,15.57
2019-02-14T22:21:18.060Z,11.37
2019-02-14T22:26:22.108Z,9.37
2019-02-14T22:31:26.118Z,10.97
2019-02-14T22:36:30.144Z,12.10
2019-02-14T22:41:34.175Z,13.93
2019-02-14T22:46:38.210Z,11.67
2019-02-14T22:51:42.238Z,12.23
2019-02-14T22:56:46.247Z,11.07
2019-02-14T23:01:50.261Z,10.43
2019-02-14T23:06:54.290Z,12.10
2019-02-14T23:11:58.305Z,9.83
2019-02-14T23:17:02.332Z,14.20
2019-02-14T23:22:06.404Z,15.20
2019-02-14T23:27:10.438Z,12.00
2019-02-14T23:32:14.448Z,11.57
2019-02-14T23:37:18.499Z,11.27
2019-02-14T23:42:22.524Z,10.70
2019-02-14T23:47:26.542Z,10.97
2019-02-14T23:52:30.567Z,9.97
2019-02-14T23:57:34.586Z,9.90
